Time;durP1;ratioP1;P1;durP2;ratioP2;P2;SDS_P1;SDS_P2;PMS_P1;PMS_P2;Temp;Humidity;BMP_temperature;BMP_pressure;BME280_temperature;BME280_humidity;BME280_pressure;Samples;Min_cycle;Max_cycle;Signal;HPM_P1;HPM_P2
2024/03/14 00:00:50;;;;;;;12.52;8.43;;;;;;;5.22;100.00;96773.16;4999466;28;20049;-68
2024/03/14 00:03:16;;;;;;;14.07;8.85;;;;;;;5.13;100.00;96757.72;4997287;28;20038;-65
2024/03/14 00:05:42;;;;;;;11.50;7.97;;;;;;;5.09;100.00;96756.75;5002890;28;20041;-66
2024/03/14 00:08:08;;;;;;;11.90;8.52;;;;;;;5.15;100.00;96755.47;4980070;28;20405;-67
2024/03/14 00:10:34;;;;;;;13.50;8.57;;;;;;;5.10;100.00;96749.44;4984245;28;20632;-67
2024/03/14 00:13:00;;;;;;;13.80;9.32;;;;;;;5.16;100.00;96753.53;4983439;28;20129;-65
2024/03/14 00:15:27;;;;;;;15.25;9.50;;;;;;;5.06;100.00;96749.31;5000408;28;20045;-66
2024/03/14 00:17:53;;;;;;;12.55;8.15;;;;;;;5.01;100.00;96740.56;5003271;28;20349;-67
2024/03/14 00:20:18;;;;;;;12.93;7.75;;;;;;;4.98;100.00;96748.22;4997445;28;20042;-66
2024/03/14 00:22:44;;;;;;;10.48;7.63;;;;;;;4.97;100.00;96746.63;5002045;28;20045;-66
2024/03/14 00:25:10;;;;;;;10.13;7.05;;;;;;;4.93;100.00;96753.03;4996945;28;20061;-66
2024/03/14 00:27:37;;;;;;;11.57;7.68;;;;;;;4.84;100.00;96750.38;5001546;28;20076;-66
2024/03/14 00:30:11;;;;;;;11.52;8.18;;;;;;;4.77;100.00;96747.38;5000483;28;20072;-70
2024/03/14 00:32:39;;;;;;;10.20;7.07;;;;;;;4.75;100.00;96736.06;5006993;28;20530;-66
2024/03/14 00:35:05;;;;;;;10.40;7.50;;;;;;;4.82;100.00;96740.97;5001473;28;20444;-67
2024/03/14 00:37:31;;;;;;;13.57;8.27;;;;;;;4.87;100.00;96744.28;5002148;28;20511;-68
2024/03/14 00:39:56;;;;;;;12.27;8.02;;;;;;;4.89;100.00;96741.25;5002096;28;20129;-65
2024/03/14 00:42:26;;;;;;;12.15;8.05;;;;;;;5.00;100.00;96736.25;4998596;28;20046;-66
2024/03/14 00:44:52;;;;;;;;;;;;;;;4.93;100.00;96729.44;4985164;28;20042;-66
2024/03/14 00:47:18;;;;;;;13.48;8.35;;;;;;;4.89;100.00;96724.97;4996513;28;20368;-66
2024/03/14 00:49:43;;;;;;;12.68;8.57;;;;;;;4.84;100.00;96725.94;5000728;28;20030;-66
2024/03/14 00:52:09;;;;;;;11.27;8.02;;;;;;;4.76;100.00;96729.53;4994377;28;20053;-66
2024/03/14 00:54:35;;;;;;;12.90;8.40;;;;;;;4.66;100.00;96727.97;5000634;28;20045;-67
2024/03/14 00:57:02;;;;;;;16.60;8.70;;;;;;;4.60;100.00;96734.69;5001256;28;20064;-65
2024/03/14 00:59:31;;;;;;;12.18;7.45;;;;;;;4.53;100.00;96720.84;4999203;28;20034;-66
2024/03/14 01:01:56;;;;;;;10.63;7.53;;;;;;;4.50;100.00;96721.50;5002086;28;20481;-66
2024/03/14 01:04:22;;;;;;;11.27;7.55;;;;;;;4.44;100.00;96726.31;4996165;28;20210;-66
2024/03/14 01:06:48;;;;;;;11.07;7.80;;;;;;;4.39;100.00;96718.34;5002582;28;20130;-66
2024/03/14 01:09:16;;;;;;;11.93;8.68;;;;;;;4.42;100.00;96720.44;4979424;28;20136;-67
2024/03/14 01:11:42;;;;;;;11.15;7.55;;;;;;;4.40;100.00;96715.31;5001656;28;20050;-66
2024/03/14 01:14:07;;;;;;;10.55;8.10;;;;;;;4.36;100.00;96717.09;4995580;28;20377;-66
2024/03/14 01:16:33;;;;;;;14.70;7.75;;;;;;;4.32;100.00;96704.50;5001235;28;20117;-65
2024/03/14 01:18:58;;;;;;;9.55;7.43;;;;;;;4.24;100.00;96702.66;5000927;28;20046;-64
2024/03/14 01:21:26;;;;;;;12.18;7.10;;;;;;;4.25;100.00;96706.94;4996224;28;20050;-66
2024/03/14 01:23:51;;;;;;;11.50;7.50;;;;;;;4.19;100.00;96698.97;5001133;28;20049;-66
2024/03/14 01:26:20;;;;;;;9.77;7.10;;;;;;;4.21;100.00;96706.78;4978584;28;20045;-65
2024/03/14 01:28:46;;;;;;;8.90;6.40;;;;;;;4.17;100.00;96701.22;5001279;28;20045;-66
2024/03/14 01:31:11;;;;;;;10.98;6.82;;;;;;;4.09;100.00;96695.81;5000659;28;20058;-68
2024/03/14 01:33:37;;;;;;;9.75;6.90;;;;;;;4.06;100.00;96696.50;5008505;28;20594;-67
2024/03/14 01:36:04;;;;;;;10.27;6.38;;;;;;;4.04;100.00;96691.38;5014220;28;20041;-71
2024/03/14 01:38:30;;;;;;;10.82;6.63;;;;;;;4.04;100.00;96691.38;4988017;28;20044;-66
2024/03/14 01:40:55;;;;;;;10.15;6.07;;;;;;;4.02;100.00;96689.00;5001403;28;20041;-66
2024/03/14 01:43:22;;;;;;;9.50;5.95;;;;;;;4.00;100.00;96680.41;4994324;28;20742;-67
2024/03/14 01:45:47;;;;;;;14.93;8.23;;;;;;;3.91;100.00;96673.44;5001035;28;20045;-66
2024/03/14 01:48:14;;;;;;;9.68;6.13;;;;;;;3.93;100.00;96684.75;4995237;28;20030;-66
2024/03/14 01:50:40;;;;;;;7.82;6.13;;;;;;;3.89;100.00;96678.34;4999744;28;20038;-65
2024/03/14 01:53:05;;;;;;;7.85;6.00;;;;;;;3.83;100.00;96672.31;4978147;28;20049;-66
2024/03/14 01:55:31;;;;;;;7.63;5.78;;;;;;;3.87;100.00;96677.88;4999805;28;20037;-66
2024/03/14 01:57:58;;;;;;;6.40;4.93;;;;;;;3.88;100.00;96674.84;4990516;28;20093;-66
2024/03/14 02:00:38;;;;;;;7.25;5.85;;;;;;;3.76;100.00;96669.31;4998694;28;20104;-66
2024/03/14 02:03:04;;;;;;;7.47;5.68;;;;;;;3.70;100.00;96665.97;4995883;28;20401;-66
2024/03/14 02:05:44;;;;;;;10.50;5.60;;;;;;;3.65;100.00;96666.16;4999871;28;20441;-65
2024/03/14 02:08:10;;;;;;;8.07;5.55;;;;;;;3.73;100.00;96665.34;4994962;28;20496;-66
2024/03/14 02:10:36;;;;;;;8.70;5.90;;;;;;;3.66;100.00;96658.84;4982832;28;20069;-66
2024/03/14 02:13:01;;;;;;;7.28;5.38;;;;;;;3.66;100.00;96656.91;4997555;28;20046;-70
2024/03/14 02:15:28;;;;;;;8.70;5.53;;;;;;;3.66;100.00;96661.53;4998525;28;20057;-67
2024/03/14 02:17:55;;;;;;;6.60;5.25;;;;;;;3.67;100.00;96661.19;5000755;28;20052;-67
2024/03/14 02:20:20;;;;;;;6.50;5.68;;;;;;;3.59;100.00;96652.00;4995553;28;20042;-66
2024/03/14 02:22:46;;;;;;;8.00;5.80;;;;;;;3.48;100.00;96661.56;5001048;28;20042;-67
2024/03/14 02:25:13;;;;;;;8.68;5.90;;;;;;;3.52;100.00;96656.31;4993995;28;20038;-67
2024/03/14 02:27:38;;;;;;;7.60;4.93;;;;;;;3.50;100.00;96656.63;4999215;28;20048;-67
2024/03/14 02:30:04;;;;;;;7.55;5.95;;;;;;;3.40;100.00;96657.78;4993225;28;20409;-68
2024/03/14 02:32:30;;;;;;;9.77;5.80;;;;;;;3.45;100.00;96657.59;5004497;28;20648;-67
2024/03/14 02:34:56;;;;;;;9.68;6.07;;;;;;;3.44;100.00;96660.63;5004105;28;20426;-66
2024/03/14 02:37:21;;;;;;;8.93;6.07;;;;;;;3.39;100.00;96658.09;4995683;28;20139;-66
2024/03/14 02:39:47;;;;;;;7.82;6.07;;;;;;;3.33;100.00;96651.22;4999696;28;20049;-66
2024/03/14 02:42:14;;;;;;;8.07;5.82;;;;;;;3.32;100.00;96652.38;4995194;28;20381;-67
2024/03/14 02:44:39;;;;;;;7.30;5.63;;;;;;;3.29;100.00;96637.53;4998843;28;20045;-66
2024/03/14 02:47:07;;;;;;;7.70;5.78;;;;;;;3.29;100.00;96636.75;4977583;28;20049;-67
2024/03/14 02:49:33;;;;;;;7.10;5.72;;;;;;;3.21;100.00;96638.38;4999683;28;20037;-66
2024/03/14 02:51:59;;;;;;;9.73;6.50;;;;;;;3.03;100.00;96632.94;4998763;28;20080;-67
2024/03/14 02:54:26;;;;;;;14.35;7.47;;;;;;;2.61;100.00;96631.81;4993204;28;20070;-66
2024/03/14 02:56:51;;;;;;;49.90;10.27;;;;;;;2.43;100.00;96622.88;4998642;28;20042;-67
2024/03/14 02:59:17;;;;;;;16.73;11.05;;;;;;;2.36;100.00;96630.66;4994659;28;20129;-66
2024/03/14 03:01:42;;;;;;;13.90;8.95;;;;;;;2.35;100.00;96627.16;4999831;28;20034;-68
2024/03/14 03:04:09;;;;;;;11.50;8.57;;;;;;;2.40;100.00;96621.63;4996558;28;20042;-66
2024/03/14 03:06:36;;;;;;;12.70;8.35;;;;;;;2.52;100.00;96629.13;4994785;28;20119;-66
2024/03/14 03:09:04;;;;;;;13.10;8.75;;;;;;;2.66;100.00;96632.44;5000159;28;20045;-71
2024/03/14 03:11:32;;;;;;;11.20;7.68;;;;;;;2.66;100.00;96626.25;4981657;28;20116;-66
2024/03/14 03:13:57;;;;;;;11.55;8.00;;;;;;;2.64;100.00;96631.97;4999483;28;20123;-68
2024/03/14 03:16:24;;;;;;;11.32;8.15;;;;;;;2.66;100.00;96627.03;4976949;28;20548;-66
2024/03/14 03:18:49;;;;;;;10.45;7.55;;;;;;;2.71;100.00;96633.44;4997628;28;20521;-68
2024/03/14 03:21:14;;;;;;;11.63;7.97;;;;;;;2.64;100.00;96636.59;4994946;28;20145;-67
2024/03/14 03:23:40;;;;;;;10.13;7.43;;;;;;;2.56;100.00;96637.41;5007875;28;20037;-66
2024/03/14 03:26:08;;;;;;;10.00;7.75;;;;;;;2.52;100.00;96631.00;4996937;28;20146;-68
2024/03/14 03:28:35;;;;;;;11.20;8.30;;;;;;;2.53;100.00;96638.03;4998622;28;20488;-68
2024/03/14 03:31:00;;;;;;;9.82;8.02;;;;;;;2.49;100.00;96643.25;5000128;28;20653;-68
2024/03/14 03:33:27;;;;;;;12.35;8.38;;;;;;;2.50;100.00;96642.13;4996980;28;20046;-68
2024/03/14 03:35:53;;;;;;;10.55;7.88;;;;;;;2.49;100.00;96637.84;5004914;28;20736;-66
2024/03/14 03:38:18;;;;;;;10.05;6.95;;;;;;;2.63;100.00;96646.63;4997016;28;20046;-67
2024/03/14 03:40:43;;;;;;;9.52;7.57;;;;;;;2.56;100.00;96649.00;5002822;28;20046;-68
2024/03/14 03:43:12;;;;;;;9.00;7.10;;;;;;;2.63;100.00;96643.13;5002184;28;20488;-67
2024/03/14 03:45:38;;;;;;;10.75;7.78;;;;;;;2.64;100.00;96650.13;5003309;28;20056;-69
2024/03/14 03:48:05;;;;;;;12.30;7.63;;;;;;;2.58;100.00;96644.06;4995865;28;20768;-69
2024/03/14 03:50:30;;;;;;;11.05;8.45;;;;;;;2.71;100.00;96636.91;5003076;28;20105;-66
2024/03/14 03:52:56;;;;;;;11.00;8.10;;;;;;;2.68;100.00;96646.47;5003965;28;20157;-68
2024/03/14 03:55:21;;;;;;;13.48;8.20;;;;;;;2.62;100.00;96645.03;4997012;28;20835;-67
2024/03/14 03:57:47;;;;;;;9.25;7.43;;;;;;;2.57;100.00;96644.38;5002942;28;20054;-66
2024/03/14 04:00:33;;;;;;;8.70;7.00;;;;;;;2.53;100.00;96643.44;4998279;28;20038;-67
2024/03/14 04:02:59;;;;;;;10.05;7.50;;;;;;;2.42;100.00;96643.72;5000939;28;20180;-67
2024/03/14 04:05:27;;;;;;;9.68;7.20;;;;;;;2.21;100.00;96645.41;4978854;28;20450;-68
2024/03/14 04:07:59;;;;;;;10.30;7.50;;;;;;;2.21;100.00;96648.91;5003005;28;20038;-68
2024/03/14 04:10:24;;;;;;;10.25;8.05;;;;;;;2.35;100.00;96651.50;5014970;28;20042;-68
2024/03/14 04:13:00;;;;;;;9.65;7.05;;;;;;;2.37;100.00;96648.47;5009689;28;20489;-67
2024/03/14 04:15:30;;;;;;;11.25;7.22;;;;;;;2.17;100.00;96639.06;4980787;28;20073;-66
2024/03/14 04:17:55;;;;;;;13.63;7.88;;;;;;;1.88;100.00;96640.38;5003065;28;20044;-67
2024/03/14 04:20:25;;;;;;;10.13;7.60;;;;;;;1.86;100.00;96634.50;4997010;28;20148;-68
2024/03/14 04:22:53;;;;;;;;;;;;;;;1.77;100.00;96633.66;5003584;28;20038;-68
2024/03/14 04:25:19;;;;;;;12.07;8.40;;;;;;;1.95;100.00;96632.63;4997945;28;20330;-68
2024/03/14 04:27:45;;;;;;;13.82;8.32;;;;;;;2.06;100.00;96643.94;5001301;28;20049;-68
2024/03/14 04:30:17;;;;;;;13.85;8.82;;;;;;;2.06;100.00;96636.63;4997359;28;20046;-65
2024/03/14 04:32:45;;;;;;;15.32;9.50;;;;;;;2.00;100.00;96642.47;5002231;28;20061;-67
2024/03/14 04:35:11;;;;;;;12.80;8.60;;;;;;;1.89;100.00;96640.06;5001510;28;20053;-67
2024/03/14 04:37:39;;;;;;;14.70;9.75;;;;;;;1.83;100.00;96635.09;5005053;28;20444;-67
2024/03/14 04:40:12;;;;;;;14.23;9.30;;;;;;;1.86;100.00;96651.50;4980604;28;20632;-68
2024/03/14 04:42:41;;;;;;;12.90;8.70;;;;;;;1.90;100.00;96657.84;5005902;28;20046;-69
2024/03/14 04:45:11;;;;;;;16.50;8.97;;;;;;;1.95;100.00;96650.75;4997391;28;20632;-66
2024/03/14 04:47:37;;;;;;;11.43;8.05;;;;;;;1.86;100.00;96661.50;5002248;28;20296;-67
2024/03/14 04:50:03;;;;;;;11.02;7.93;;;;;;;1.80;100.00;96658.16;5008970;28;20642;-70
2024/03/14 04:52:29;;;;;;;11.20;8.55;;;;;;;1.75;100.00;96652.88;5002364;28;20155;-67
2024/03/14 04:54:54;;;;;;;11.88;8.48;;;;;;;1.69;100.00;96654.91;5001598;28;20037;-67
2024/03/14 04:57:21;;;;;;;12.52;8.65;;;;;;;1.64;100.00;96660.44;4998081;28;20048;-66
2024/03/14 04:59:48;;;;;;;13.65;9.45;;;;;;;1.59;100.00;96660.56;5000955;28;20042;-66
2024/03/14 05:02:14;;;;;;;12.80;9.02;;;;;;;1.58;100.00;96655.47;4998280;28;20077;-68
2024/03/14 05:04:39;;;;;;;15.48;9.98;;;;;;;1.59;100.00;96659.78;4983626;28;20518;-70
2024/03/14 05:07:05;;;;;;;15.10;10.15;;;;;;;1.58;100.00;96656.25;4978933;28;20520;-65
2024/03/14 05:09:31;;;;;;;18.00;11.38;;;;;;;1.59;100.00;96654.38;4981322;28;20104;-68
2024/03/14 05:11:56;;;;;;;20.08;11.75;;;;;;;1.53;100.00;96661.78;5001260;28;20507;-66
2024/03/14 05:14:22;;;;;;;16.55;10.45;;;;;;;1.58;100.00;96661.66;4996094;28;20740;-68
2024/03/14 05:16:48;;;;;;;17.42;11.05;;;;;;;2.07;100.00;96659.03;5001537;28;20129;-67
2024/03/14 05:19:16;;;;;;;24.60;13.30;;;;;;;2.37;100.00;96660.06;4997537;28;20114;-68
2024/03/14 05:21:45;;;;;;;28.05;13.48;;;;;;;2.32;100.00;96656.72;5000354;28;20042;-66
2024/03/14 05:24:11;;;;;;;43.03;15.15;;;;;;;2.31;100.00;96660.56;4996262;28;20042;-66
2024/03/14 05:26:37;;;;;;;59.30;16.02;;;;;;;2.32;100.00;96654.81;5001100;28;20042;-67
2024/03/14 05:29:02;;;;;;;207.65;18.52;;;;;;;2.15;100.00;96649.38;4999728;28;20539;-72
2024/03/14 05:31:28;;;;;;;210.25;17.42;;;;;;;2.04;100.00;96656.97;4964719;28;20053;-66
2024/03/14 05:33:53;;;;;;;22.35;12.57;;;;;;;2.07;100.00;96653.63;5000660;28;20497;-66
2024/03/14 05:36:19;;;;;;;42.25;13.32;;;;;;;2.20;100.00;96657.34;4998448;28;20042;-67
2024/03/14 05:38:44;;;;;;;20.48;12.05;;;;;;;2.33;100.00;96669.16;5003306;28;20053;-67
2024/03/14 05:41:09;;;;;;;28.63;14.73;;;;;;;2.52;100.00;96661.56;4995888;28;20778;-66
2024/03/14 05:43:35;;;;;;;26.83;14.00;;;;;;;2.80;100.00;96667.47;5004456;28;20033;-67
2024/03/14 05:46:02;;;;;;;24.73;14.15;;;;;;;2.92;100.00;96666.84;5001264;28;20428;-64
2024/03/14 05:48:28;;;;;;;25.48;13.25;;;;;;;3.06;100.00;96672.91;4998470;28;20107;-64
2024/03/14 05:50:53;;;;;;;27.52;13.75;;;;;;;3.14;100.00;96668.59;4999805;28;20050;-65
2024/03/14 05:53:20;;;;;;;25.33;14.65;;;;;;;3.27;100.00;96671.47;4995085;28;20493;-66
2024/03/14 05:55:47;;;;;;;33.95;14.88;;;;;;;3.40;100.00;96665.91;4995926;28;20038;-66
2024/03/14 05:58:13;;;;;;;27.42;14.18;;;;;;;3.44;100.00;96672.25;4997397;28;20607;-68
2024/03/14 06:00:41;;;;;;;27.88;13.93;;;;;;;3.53;100.00;96676.84;5000932;28;20042;-65
2024/03/14 06:03:07;;;;;;;28.58;14.88;;;;;;;3.66;100.00;96675.88;4996780;28;20042;-66
2024/03/14 06:05:33;;;;;;;25.35;14.60;;;;;;;3.72;100.00;96674.56;4983066;28;20042;-65
2024/03/14 06:07:58;;;;;;;29.90;17.58;;;;;;;3.87;100.00;96672.47;5001247;28;20087;-67
2024/03/14 06:10:24;;;;;;;37.55;13.75;;;;;;;3.92;100.00;96677.72;4997397;28;20100;-66
2024/03/14 06:12:49;;;;;;;22.08;12.95;;;;;;;3.92;100.00;96675.00;5000139;28;20045;-66
2024/03/14 06:15:18;;;;;;;26.13;14.13;;;;;;;3.96;100.00;96675.94;4997687;28;20080;-67
2024/03/14 06:17:44;;;;;;;25.33;13.38;;;;;;;3.90;100.00;96674.53;4992327;28;20776;-67
2024/03/14 06:20:11;;;;;;;24.17;13.80;;;;;;;3.93;100.00;96680.09;4995692;28;20085;-70
2024/03/14 06:22:39;;;;;;;55.97;15.20;;;;;;;3.95;100.00;96677.06;4999409;28;20069;-67
2024/03/14 06:25:07;;;;;;;26.95;14.15;;;;;;;4.08;100.00;96675.28;4996297;28;20037;-68
2024/03/14 06:27:33;;;;;;;30.65;15.60;;;;;;;4.17;100.00;96681.47;4994400;28;20046;-67
2024/03/14 06:29:59;;;;;;;30.77;16.63;;;;;;;4.18;100.00;96678.41;4981806;28;20100;-66
2024/03/14 06:32:24;;;;;;;25.25;14.02;;;;;;;4.33;100.00;96682.50;4994997;28;20041;-67
2024/03/14 06:34:50;;;;;;;29.73;16.77;;;;;;;4.49;100.00;96681.97;5001133;28;20042;-66
2024/03/14 06:37:17;;;;;;;56.22;14.13;;;;;;;4.47;100.00;96685.00;4997907;28;20540;-67
2024/03/14 06:39:45;;;;;;;20.23;13.02;;;;;;;4.49;100.00;96682.75;5004192;28;20041;-67
2024/03/14 06:42:11;;;;;;;69.55;14.48;;;;;;;4.37;100.00;96686.13;4993303;28;20042;-68
2024/03/14 06:44:37;;;;;;;117.32;19.67;;;;;;;4.17;100.00;96684.16;5001282;28;20041;-67
2024/03/14 06:47:03;;;;;;;74.18;14.77;;;;;;;4.11;100.00;96680.84;5008065;28;20038;-72
2024/03/14 06:49:29;;;;;;;118.22;16.65;;;;;;;3.97;100.00;96688.38;5004466;28;20478;-67
2024/03/14 06:51:55;;;;;;;125.40;20.75;;;;;;;3.85;100.00;96693.69;4998849;28;20052;-66
2024/03/14 06:54:21;;;;;;;75.45;28.45;;;;;;;3.92;100.00;96693.97;4993663;28;20046;-67
2024/03/14 06:56:46;;;;;;;39.88;18.77;;;;;;;4.14;100.00;96690.22;4993039;28;20053;-65
2024/03/14 06:59:14;;;;;;;43.58;19.67;;;;;;;4.39;100.00;96692.06;4993503;28;20088;-65
2024/03/14 07:01:40;;;;;;;86.80;21.85;;;;;;;4.50;100.00;96692.47;5000228;28;20034;-66
2024/03/14 07:04:05;;;;;;;159.10;24.13;;;;;;;4.00;100.00;96695.88;5000025;28;20148;-67
2024/03/14 07:06:34;;;;;;;165.43;22.15;;;;;;;3.85;100.00;96690.97;4999832;28;20092;-67
2024/03/14 07:09:01;;;;;;;117.05;19.05;;;;;;;3.77;100.00;96695.28;4981748;28;20497;-66
2024/03/14 07:11:26;;;;;;;82.32;18.98;;;;;;;3.64;100.00;96702.50;4996276;28;20137;-66
2024/03/14 07:13:54;;;;;;;148.73;25.30;;;;;;;3.62;100.00;96700.09;4999640;28;20133;-64
2024/03/14 07:16:23;;;;;;;78.90;19.65;;;;;;;3.69;100.00;96705.03;4995334;28;20104;-67
2024/03/14 07:18:57;;;;;;;103.07;19.83;;;;;;;3.58;100.00;96706.47;4999428;28;20084;-64
2024/03/14 07:21:22;;;;;;;127.43;25.92;;;;;;;3.64;100.00;96702.50;4996209;28;20068;-66
2024/03/14 07:23:48;;;;;;;42.13;20.48;;;;;;;4.04;100.00;96713.06;5001687;28;20040;-66
2024/03/14 07:26:31;;;;;;;50.00;19.35;;;;;;;4.16;100.00;96710.50;4993332;28;20670;-66
2024/03/14 07:28:58;;;;;;;54.80;18.98;;;;;;;3.79;100.00;96712.81;5001896;28;20050;-65
2024/03/14 07:31:28;;;;;;;37.15;16.30;;;;;;;4.08;100.00;96714.00;4981881;28;20669;-67
2024/03/14 07:33:54;;;;;;;35.53;18.23;;;;;;;4.27;100.00;96716.34;5004547;28;20504;-67
2024/03/14 07:36:19;;;;;;;44.80;16.67;;;;;;;4.19;100.00;96720.66;4997763;28;20042;-64
2024/03/14 07:38:47;;;;;;;57.17;17.73;;;;;;;4.07;100.00;96714.31;5002722;28;20109;-66
2024/03/14 07:41:20;;;;;;;34.20;15.38;;;;;;;4.40;100.00;96712.63;5004613;28;20132;-66
2024/03/14 07:43:45;;;;;;;31.67;15.35;;;;;;;4.51;100.00;96717.69;5003566;28;20581;-67
2024/03/14 07:46:10;;;;;;;29.63;14.15;;;;;;;4.57;100.00;96721.78;4992168;28;20038;-66
2024/03/14 07:48:37;;;;;;;29.85;14.98;;;;;;;4.54;100.00;96714.31;4999388;28;20053;-67
2024/03/14 07:51:09;;;;;;;43.20;14.73;;;;;;;4.68;100.00;96722.22;4994528;28;20046;-65
2024/03/14 07:53:35;;;;;;;29.83;14.43;;;;;;;4.82;100.00;96714.63;4998785;28;20489;-67
2024/03/14 07:56:00;;;;;;;26.60;14.18;;;;;;;4.94;100.00;96720.16;4998630;28;20104;-69
2024/03/14 07:58:26;;;;;;;32.33;14.63;;;;;;;5.16;100.00;96718.25;5001012;28;20042;-66
2024/03/14 08:00:53;;;;;;;27.80;14.10;;;;;;;5.30;100.00;96713.34;4999319;28;20053;-66
2024/03/14 08:03:18;;;;;;;27.85;15.15;;;;;;;5.32;100.00;96708.38;4994090;28;20030;-64
2024/03/14 08:05:50;;;;;;;43.90;14.40;;;;;;;5.33;100.00;96707.25;4990449;28;20053;-68
2024/03/14 08:08:18;;;;;;;25.65;14.15;;;;;;;5.45;100.00;96711.94;4993681;28;20144;-68
2024/03/14 08:10:47;;;;;;;24.48;14.02;;;;;;;5.43;100.00;96711.47;4998707;28;20107;-68
2024/03/14 08:13:21;;;;;;;26.08;12.48;;;;;;;5.54;100.00;96709.94;4975885;28;20095;-66
2024/03/14 08:15:52;;;;;;;32.30;14.02;;;;;;;5.47;100.00;96708.88;4999008;28;20263;-67
2024/03/14 08:18:21;;;;;;;30.80;15.43;;;;;;;5.48;100.00;96707.78;4993691;28;20049;-66
2024/03/14 08:20:47;;;;;;;25.83;13.90;;;;;;;5.64;100.00;96706.03;4999460;28;20042;-68
2024/03/14 08:23:16;;;;;;;23.38;13.23;;;;;;;5.66;100.00;96714.63;4994329;28;20049;-67
2024/03/14 08:25:42;;;;;;;22.75;13.18;;;;;;;5.86;100.00;96714.94;5002103;28;20037;-66
2024/03/14 08:28:07;;;;;;;27.48;13.10;;;;;;;5.80;100.00;96705.38;4997922;28;20457;-66
2024/03/14 08:30:37;;;;;;;22.20;13.10;;;;;;;5.79;100.00;96711.97;5000539;28;20070;-69
2024/03/14 08:33:03;;;;;;;;;;;;;;;5.97;100.00;96712.59;4997360;28;20116;-70
2024/03/14 08:35:29;;;;;;;21.05;11.73;;;;;;;5.80;100.00;96710.81;5000862;28;19917;-67
2024/03/14 08:37:54;;;;;;;22.80;11.30;;;;;;;5.86;100.00;96714.94;5002080;28;20065;-67
2024/03/14 08:40:20;;;;;;;22.85;11.02;;;;;;;5.98;100.00;96722.34;4997953;28;20030;-69
2024/03/14 08:42:45;;;;;;;18.77;10.35;;;;;;;5.94;100.00;96723.00;5007089;28;20042;-69
2024/03/14 08:45:11;;;;;;;18.38;10.70;;;;;;;5.89;100.00;96717.78;4997199;28;20037;-68
2024/03/14 08:47:37;;;;;;;20.02;10.98;;;;;;;5.78;100.00;96724.75;5002008;28;20076;-68
2024/03/14 08:50:04;;;;;;;19.80;11.48;;;;;;;5.59;100.00;96719.81;4981213;28;20045;-69
2024/03/14 08:52:31;;;;;;;20.45;12.35;;;;;;;5.24;100.00;96720.09;5000772;28;20042;-68
2024/03/14 08:54:58;;;;;;;27.60;15.77;;;;;;;5.23;100.00;96726.66;5002088;28;20072;-69
2024/03/14 08:57:25;;;;;;;21.85;13.13;;;;;;;5.31;100.00;96723.09;4979466;28;20928;-67
2024/03/14 08:59:54;;;;;;;19.85;11.88;;;;;;;5.42;100.00;96734.34;5001763;28;20137;-68
2024/03/14 09:02:22;;;;;;;26.40;14.57;;;;;;;5.70;100.00;96729.13;4996276;28;20042;-67
2024/03/14 09:04:51;;;;;;;23.33;13.02;;;;;;;5.80;100.00;96722.50;4993247;28;20120;-68
2024/03/14 09:07:17;;;;;;;;;;;;;;;5.95;100.00;96729.22;4995468;28;20038;-68
2024/03/14 09:09:44;;;;;;;18.80;12.05;;;;;;;6.26;100.00;96730.69;5001469;28;19956;-68
2024/03/14 09:12:25;;;;;;;19.20;11.48;;;;;;;6.47;100.00;96731.38;4997702;28;20093;-66
2024/03/14 09:14:51;;;;;;;18.63;11.43;;;;;;;6.51;100.00;96723.34;5017208;28;20072;-68
2024/03/14 09:17:17;;;;;;;15.25;10.20;;;;;;;6.30;100.00;96726.16;4997220;28;20074;-68
2024/03/14 09:19:44;;;;;;;25.38;11.38;;;;;;;6.10;100.00;96720.47;5002570;28;20034;-69
2024/03/14 09:22:09;;;;;;;21.83;12.13;;;;;;;6.02;100.00;96721.34;4999143;28;20049;-67
2024/03/14 09:24:35;;;;;;;18.50;10.93;;;;;;;6.28;100.00;96717.53;5016261;28;20049;-67
2024/03/14 09:27:04;;;;;;;22.10;12.60;;;;;;;6.44;100.00;96725.81;5004440;28;20038;-66
2024/03/14 09:29:31;;;;;;;16.50;10.50;;;;;;;6.48;100.00;96716.66;5000404;28;20065;-66
2024/03/14 09:31:57;;;;;;;18.20;11.10;;;;;;;6.98;100.00;96716.63;5002195;28;20049;-66
2024/03/14 09:34:23;;;;;;;19.10;10.73;;;;;;;7.25;100.00;96712.38;4996130;28;20061;-67
2024/03/14 09:36:52;;;;;;;27.85;10.57;;;;;;;7.33;100.00;96710.66;5000611;28;20108;-66
2024/03/14 09:39:21;;;;;;;17.35;9.90;;;;;;;7.41;100.00;96710.50;4996036;28;20041;-67
2024/03/14 09:41:48;;;;;;;16.65;10.85;;;;;;;7.39;100.00;96709.28;5005857;28;20503;-68
2024/03/14 09:44:18;;;;;;;14.70;9.82;;;;;;;7.14;100.00;96703.88;5003658;28;20413;-67
2024/03/14 09:46:50;;;;;;;16.98;9.70;;;;;;;6.54;100.00;96702.84;5001031;28;20045;-68
2024/03/14 09:49:19;;;;;;;15.73;10.82;;;;;;;6.37;100.00;96709.28;4995989;28;20101;-68
2024/03/14 09:51:47;;;;;;;15.18;9.70;;;;;;;5.86;100.00;96704.84;5000941;28;20115;-68
2024/03/14 09:54:16;;;;;;;15.40;9.95;;;;;;;6.33;100.00;96703.72;4995173;28;20049;-68
2024/03/14 09:56:41;;;;;;;19.75;11.73;;;;;;;6.75;100.00;96691.81;5000956;28;20042;-69
2024/03/14 09:59:07;;;;;;;19.58;11.63;;;;;;;7.25;100.00;96687.88;4978279;28;20041;-68
2024/03/14 10:01:34;;;;;;;20.45;9.60;;;;;;;7.70;100.00;96688.72;4999513;28;20100;-68
2024/03/14 10:04:00;;;;;;;16.27;9.98;;;;;;;7.66;100.00;96694.06;5000367;28;20045;-67
2024/03/14 10:06:25;;;;;;;15.18;10.13;;;;;;;7.92;100.00;96687.34;4996319;28;20056;-69
2024/03/14 10:08:51;;;;;;;14.80;9.38;;;;;;;8.16;100.00;96686.44;4997812;28;20052;-69
2024/03/14 10:11:18;;;;;;;16.50;8.73;;;;;;;8.18;100.00;96682.19;4994216;28;20404;-69
2024/03/14 10:13:46;;;;;;;17.17;9.73;;;;;;;7.65;100.00;96678.84;5000158;28;20042;-68
2024/03/14 10:16:15;;;;;;;17.52;10.25;;;;;;;7.95;100.00;96679.28;4994775;28;20042;-69
2024/03/14 10:18:41;;;;;;;12.82;8.98;;;;;;;8.19;100.00;96678.34;4999684;28;20088;-67
2024/03/14 10:21:07;;;;;;;19.30;9.35;;;;;;;8.51;100.00;96677.56;4996197;28;20123;-68
2024/03/14 10:23:35;;;;;;;21.50;9.45;;;;;;;8.57;100.00;96681.59;5002675;28;20468;-67
2024/03/14 10:26:01;;;;;;;16.13;9.73;;;;;;;8.55;100.00;96675.72;5000073;28;20041;-68
2024/03/14 10:28:31;;;;;;;19.50;9.45;;;;;;;8.77;100.00;96672.34;4996454;28;20049;-68
2024/03/14 10:31:05;;;;;;;;;;;;;;;8.80;100.00;96668.09;4982550;28;20045;-66
2024/03/14 10:33:32;;;;;;;25.15;9.75;;;;;;;9.29;100.00;96673.06;4999831;28;19913;-68
2024/03/14 10:36:01;;;;;;;14.93;10.13;;;;;;;8.00;100.00;96664.59;5000074;28;20530;-69
2024/03/14 10:38:28;;;;;;;14.07;10.05;;;;;;;8.34;100.00;96667.78;4992756;28;20042;-67
2024/03/14 10:40:57;;;;;;;18.13;10.55;;;;;;;8.55;100.00;96662.88;4991365;28;20030;-68
2024/03/14 10:43:25;;;;;;;16.98;10.50;;;;;;;8.10;100.00;96666.78;4979958;28;20763;-67
2024/03/14 10:45:52;;;;;;;15.93;9.73;;;;;;;8.66;100.00;96667.75;5001137;28;20053;-68
2024/03/14 10:48:22;;;;;;;12.70;9.23;;;;;;;9.03;100.00;96667.44;4993238;28;20038;-67
2024/03/14 10:50:56;;;;;;;13.00;8.57;;;;;;;8.63;100.00;96663.81;4999294;28;20408;-67
2024/03/14 10:53:24;;;;;;;22.38;9.13;;;;;;;9.04;100.00;96660.81;4995502;28;20518;-67
2024/03/14 10:55:55;;;;;;;22.25;8.95;;;;;;;9.11;100.00;96661.78;4999947;28;20080;-67
2024/03/14 10:58:22;;;;;;;25.40;9.75;;;;;;;9.33;100.00;96656.75;4994649;28;20052;-66
2024/03/14 11:00:51;;;;;;;23.13;9.40;;;;;;;9.61;100.00;96663.94;4998269;28;20481;-68
2024/03/14 11:03:17;;;;;;;13.52;8.82;;;;;;;9.90;100.00;96648.84;4994457;28;20034;-68
2024/03/14 11:05:52;;;;;;;32.35;8.75;;;;;;;10.34;100.00;96656.69;4998973;28;20511;-67
2024/03/14 11:08:21;;;;;;;14.32;8.05;;;;;;;10.29;100.00;96656.94;4977185;28;20072;-68
2024/03/14 11:10:51;;;;;;;10.55;7.43;;;;;;;10.66;100.00;96654.44;4999745;28;20061;-66
2024/03/14 11:13:25;;;;;;;12.73;7.35;;;;;;;10.77;100.00;96651.06;5006899;28;20503;-66
2024/03/14 11:15:54;;;;;;;17.60;8.07;;;;;;;11.20;100.00;96638.75;4998655;28;20041;-68
2024/03/14 11:18:24;;;;;;;11.40;8.02;;;;;;;10.79;100.00;96640.56;4994623;28;20050;-66
2024/03/14 11:20:55;;;;;;;10.35;7.78;;;;;;;10.86;100.00;96637.91;4981108;28;20363;-67
2024/03/14 11:23:24;;;;;;;10.65;7.53;;;;;;;10.64;100.00;96623.91;4994038;28;20033;-67